createdAt,value
2018-09-05T00:00:23.211Z,83.42
2018-09-05T00:02:51.312Z,83.93
2018-09-05T00:05:19.398Z,85.58
2018-09-05T00:07:47.472Z,85.60
2018-09-05T00:10:15.615Z,85.66
2018-09-05T00:12:43.682Z,85.33
2018-09-05T00:15:11.769Z,85.37
2018-09-05T00:17:39.863Z,84.87
2018-09-05T00:20:07.924Z,85.70
2018-09-05T00:22:36.054Z,86.07
2018-09-05T00:25:04.128Z,85.41
2018-09-05T00:27:32.228Z,85.04
2018-09-05T00:30:00.307Z,84.81
2018-09-05T00:32:28.495Z,86.13
2018-09-05T00:34:56.606Z,86.63
2018-09-05T00:37:24.689Z,86.51
2018-09-05T00:39:52.805Z,86.40
2018-09-05T00:42:20.903Z,87.03
2018-09-05T00:44:48.962Z,86.65
2018-09-05T00:47:17.062Z,86.49
2018-09-05T00:49:45.144Z,86.82
2018-09-05T00:52:13.252Z,86.48
2018-09-05T00:54:47.839Z,87.27
2018-09-05T00:57:15.905Z,87.70
2018-09-05T00:59:43.992Z,87.68
2018-09-05T01:02:12.090Z,87.28
2018-09-05T01:04:40.146Z,86.77
2018-09-05T01:07:20.126Z,87.40
2018-09-05T01:09:48.228Z,87.56
2018-09-05T01:12:16.619Z,87.21
2018-09-05T01:14:44.727Z,87.55
2018-09-05T01:17:12.967Z,86.98
2018-09-05T01:19:41.182Z,87.43
2018-09-05T01:22:09.543Z,88.23
2018-09-05T01:24:37.863Z,88.55
2018-09-05T01:27:06.145Z,90.07
2018-09-05T01:29:35.495Z,89.44
2018-09-05T01:32:03.587Z,89.65
2018-09-05T01:34:31.649Z,90.29
2018-09-05T01:36:59.715Z,89.67
2018-09-05T01:39:27.786Z,89.91
2018-09-05T01:41:55.891Z,89.78
2018-09-05T01:44:23.962Z,90.32
2018-09-05T01:46:52.066Z,90.37
2018-09-05T01:49:20.142Z,89.30
2018-09-05T01:51:48.204Z,89.72
2018-09-05T01:54:17.012Z,90.10
2018-09-05T01:56:45.077Z,89.90
2018-09-05T01:59:13.151Z,89.87
2018-09-05T02:01:41.255Z,90.17
2018-09-05T02:04:09.326Z,89.71
2018-09-05T02:06:37.415Z,90.49
2018-09-05T02:09:08.611Z,90.52
2018-09-05T02:11:36.799Z,90.28
2018-09-05T02:14:04.875Z,90.27
2018-09-05T02:16:32.958Z,90.80
2018-09-05T02:19:01.020Z,90.81
2018-09-05T02:21:29.143Z,90.77
2018-09-05T02:23:57.227Z,89.92
2018-09-05T02:26:25.344Z,90.26
2018-09-05T02:28:53.430Z,90.17
2018-09-05T02:31:21.548Z,90.54
2018-09-05T02:33:49.648Z,89.86
2018-09-05T02:36:17.777Z,90.04
2018-09-05T02:38:46.022Z,89.90
2018-09-05T02:41:14.099Z,90.01
2018-09-05T02:43:47.565Z,91.08
2018-09-05T02:46:15.658Z,92.36
2018-09-05T02:48:43.784Z,92.82
2018-09-05T02:51:11.904Z,93.56
2018-09-05T02:53:40.005Z,93.56
2018-09-05T02:56:08.140Z,95.01
2018-09-05T02:58:36.243Z,94.74
2018-09-05T03:01:04.468Z,94.96
2018-09-05T03:03:32.595Z,94.34
2018-09-05T03:06:00.650Z,94.60
2018-09-05T03:08:28.731Z,93.74
2018-09-05T03:10:56.852Z,93.93
2018-09-05T03:13:24.990Z,93.66
2018-09-05T03:15:53.186Z,93.57
2018-09-05T03:18:21.258Z,93.00
2018-09-05T03:20:49.330Z,92.44
2018-09-05T03:23:17.415Z,92.29
2018-09-05T03:25:45.502Z,92.35
2018-09-05T03:28:13.599Z,93.14
2018-09-05T03:30:41.676Z,92.69
2018-09-05T03:33:09.828Z,94.45
2018-09-05T03:35:37.864Z,94.36
2018-09-05T03:38:05.929Z,95.30
2018-09-05T03:40:33.991Z,94.58
2018-09-05T03:43:02.107Z,93.96
2018-09-05T03:45:30.195Z,93.97
2018-09-05T03:47:58.268Z,93.34
2018-09-05T03:50:26.418Z,93.45
2018-09-05T03:52:54.503Z,94.23
2018-09-05T03:55:22.593Z,93.09
2018-09-05T03:57:50.655Z,93.22
2018-09-05T04:00:18.738Z,93.61
2018-09-05T04:02:46.823Z,93.34
2018-09-05T04:05:14.902Z,93.95
2018-09-05T04:07:42.988Z,93.42
2018-09-05T04:10:11.077Z,92.05
2018-09-05T04:12:40.171Z,92.29
2018-09-05T04:15:08.848Z,93.01
2018-09-05T04:17:37.015Z,92.84
2018-09-05T04:20:05.268Z,92.53
2018-09-05T04:22:33.364Z,92.77
2018-09-05T04:25:01.475Z,93.39
2018-09-05T04:27:29.568Z,93.15
2018-09-05T04:29:57.773Z,92.97
2018-09-05T04:32:25.783Z,92.33
2018-09-05T04:34:53.852Z,93.39
2018-09-05T04:37:21.928Z,93.40
2018-09-05T04:39:50.000Z,92.67
2018-09-05T04:42:18.119Z,93.05
2018-09-05T04:44:46.201Z,93.30
2018-09-05T04:47:14.281Z,93.30
2018-09-05T04:49:42.367Z,93.78
2018-09-05T04:52:10.435Z,93.61
2018-09-05T04:54:38.520Z,93.29
2018-09-05T04:57:06.586Z,93.46
2018-09-05T04:59:35.130Z,93.40
2018-09-05T05:02:03.222Z,92.70
2018-09-05T05:04:31.346Z,92.78
2018-09-05T05:06:59.403Z,92.98
2018-09-05T05:09:27.475Z,92.78
2018-09-05T05:11:55.549Z,92.92
2018-09-05T05:14:23.616Z,92.62
2018-09-05T05:16:51.763Z,93.17
2018-09-05T05:19:19.836Z,92.92
2018-09-05T05:21:47.915Z,93.23
2018-09-05T05:24:16.010Z,93.09
2018-09-05T05:26:47.038Z,93.12
2018-09-05T05:29:15.159Z,94.23
2018-09-05T05:31:43.256Z,93.23
2018-09-05T05:34:11.431Z,95.42
2018-09-05T05:36:39.512Z,95.06
2018-09-05T05:39:09.482Z,94.59
2018-09-05T05:41:37.544Z,95.05
2018-09-05T05:44:05.732Z,94.75
2018-09-05T05:46:34.013Z,95.43
2018-09-05T05:49:02.106Z,94.26
2018-09-05T05:51:30.301Z,94.64
2018-09-05T05:53:58.438Z,94.00
2018-09-05T05:56:26.544Z,94.50
2018-09-05T05:58:54.615Z,93.62
2018-09-05T06:01:22.693Z,94.22
2018-09-05T06:03:50.770Z,93.67
2018-09-05T06:06:19.032Z,93.43
2018-09-05T06:08:47.015Z,93.05
2018-09-05T06:11:15.626Z,92.57
2018-09-05T06:13:43.707Z,93.04
2018-09-05T06:16:12.870Z,92.59
2018-09-05T06:18:41.415Z,92.67
2018-09-05T06:21:09.550Z,91.76
2018-09-05T06:23:37.584Z,91.69
2018-09-05T06:26:05.850Z,91.28
2018-09-05T06:28:33.980Z,91.08
2018-09-05T06:31:02.380Z,91.27
2018-09-05T06:33:30.375Z,91.04
2018-09-05T06:35:59.034Z,90.61
2018-09-05T06:38:27.121Z,90.10
2018-09-05T06:40:55.221Z,90.05
2018-09-05T06:43:23.332Z,88.32
2018-09-05T06:45:51.666Z,88.45
2018-09-05T06:48:19.778Z,87.14
2018-09-05T06:50:47.853Z,86.34
2018-09-05T06:53:16.419Z,85.67
2018-09-05T06:55:44.764Z,85.89
2018-09-05T06:58:12.985Z,84.76
2018-09-05T07:00:41.098Z,84.10
2018-09-05T07:03:09.154Z,83.37
2018-09-05T07:05:37.251Z,84.18
2018-09-05T07:08:05.609Z,82.20
2018-09-05T07:10:33.755Z,82.88
2018-09-05T07:13:01.832Z,81.96
2018-09-05T07:15:29.914Z,81.44
2018-09-05T07:17:57.998Z,82.02
2018-09-05T07:20:26.077Z,80.74
2018-09-05T07:22:54.168Z,80.73
2018-09-05T07:25:22.253Z,80.27
2018-09-05T07:27:50.344Z,79.83
2018-09-05T07:30:18.603Z,78.97
2018-09-05T07:32:46.937Z,78.87
2018-09-05T07:35:15.109Z,78.99
2018-09-05T07:37:43.239Z,78.96
2018-09-05T07:40:11.319Z,78.41
2018-09-05T07:42:39.430Z,77.62
2018-09-05T07:45:07.557Z,78.19
2018-09-05T07:47:35.707Z,76.90
2018-09-05T07:50:03.897Z,77.15
2018-09-05T07:52:32.094Z,77.33
2018-09-05T07:55:00.150Z,76.93
2018-09-05T07:57:28.340Z,76.58
2018-09-05T07:59:56.349Z,75.62
2018-09-05T08:02:24.436Z,75.11
2018-09-05T08:04:52.677Z,75.44
2018-09-05T08:07:20.765Z,75.31
2018-09-05T08:09:48.855Z,75.48
2018-09-05T08:12:16.986Z,74.67
2018-09-05T08:14:45.076Z,74.82
2018-09-05T08:17:13.162Z,74.77
2018-09-05T08:19:41.255Z,73.72
2018-09-05T08:22:09.402Z,73.87
2018-09-05T08:24:37.544Z,74.10
2018-09-05T08:27:05.587Z,73.33
2018-09-05T08:29:33.697Z,72.87
2018-09-05T08:32:01.828Z,72.91
2018-09-05T08:34:29.927Z,73.32
2018-09-05T08:36:58.977Z,72.08
2018-09-05T08:39:26.703Z,72.38
2018-09-05T08:41:54.876Z,71.79
2018-09-05T08:44:23.191Z,71.13
2018-09-05T08:46:51.180Z,70.72
2018-09-05T08:49:19.239Z,71.14
2018-09-05T08:51:47.326Z,70.19
2018-09-05T08:54:15.428Z,70.20
2018-09-05T08:56:43.540Z,69.15
2018-09-05T08:59:11.615Z,69.00
2018-09-05T09:01:39.709Z,69.16
2018-09-05T09:04:07.791Z,69.00
2018-09-05T09:06:35.916Z,68.99
2018-09-05T09:09:05.843Z,68.35
2018-09-05T09:11:34.046Z,68.10
2018-09-05T09:14:02.050Z,67.70
2018-09-05T09:16:30.127Z,67.59
2018-09-05T09:18:58.239Z,67.35
2018-09-05T09:21:26.363Z,66.38
2018-09-05T09:23:54.444Z,65.92
2018-09-05T09:26:22.532Z,65.48
2018-09-05T09:28:50.635Z,65.67
2018-09-05T09:31:18.720Z,65.35
2018-09-05T09:33:46.796Z,65.39
2018-09-05T09:36:14.870Z,64.56
2018-09-05T09:38:42.992Z,63.63
2018-09-05T09:41:11.127Z,63.75
2018-09-05T09:43:39.207Z,63.35
2018-09-05T09:46:07.320Z,62.75
2018-09-05T09:48:35.391Z,62.64
2018-09-05T09:51:03.479Z,62.12
2018-09-05T09:53:31.605Z,61.36
2018-09-05T09:55:59.719Z,60.63
2018-09-05T09:58:27.821Z,60.72
2018-09-05T10:01:01.115Z,60.29
2018-09-05T10:03:34.541Z,60.56
2018-09-05T10:06:07.743Z,59.87
2018-09-05T10:08:40.995Z,59.64
2018-09-05T10:11:16.509Z,59.01
2018-09-05T10:13:49.983Z,58.14
2018-09-05T10:16:23.335Z,58.45
2018-09-05T10:18:53.060Z,58.38
2018-09-05T10:21:21.335Z,57.90
2018-09-05T10:23:49.471Z,58.43
2018-09-05T10:26:17.600Z,57.88
2018-09-05T10:28:45.700Z,56.38
2018-09-05T10:31:13.831Z,57.03
2018-09-05T10:33:41.954Z,56.43
2018-09-05T10:36:10.072Z,55.82
2018-09-05T10:38:38.177Z,55.50
2018-09-05T10:41:06.251Z,55.31
2018-09-05T10:43:34.339Z,54.95
2018-09-05T10:46:02.435Z,54.18
2018-09-05T10:48:30.544Z,53.08
2018-09-05T10:50:58.678Z,51.90
2018-09-05T10:53:26.780Z,50.24
2018-09-05T10:55:54.873Z,52.73
2018-09-05T10:58:22.980Z,52.23
2018-09-05T11:00:51.067Z,51.54
2018-09-05T11:03:19.145Z,48.77
2018-09-05T11:05:47.216Z,45.88
2018-09-05T11:08:15.297Z,44.51
2018-09-05T11:10:43.375Z,45.15
2018-09-05T11:13:11.447Z,46.55
2018-09-05T11:15:39.541Z,46.54
2018-09-05T11:18:07.627Z,46.29
2018-09-05T11:20:35.708Z,46.37
2018-09-05T11:23:03.867Z,47.41
2018-09-05T11:25:31.925Z,47.49
2018-09-05T11:28:00.029Z,47.24
2018-09-05T11:30:28.143Z,46.56
2018-09-05T11:32:56.251Z,47.09
2018-09-05T11:35:24.340Z,47.01
2018-09-05T11:37:52.431Z,47.45
2018-09-05T11:40:20.505Z,46.93
2018-09-05T11:42:48.606Z,46.06
2018-09-05T11:45:16.680Z,45.07
2018-09-05T11:47:44.767Z,45.05
2018-09-05T11:50:12.830Z,45.97
2018-09-05T11:52:40.927Z,45.50
2018-09-05T11:55:09.039Z,45.04
2018-09-05T11:57:37.116Z,44.80
2018-09-05T12:00:05.300Z,43.05
2018-09-05T12:02:33.367Z,42.79
2018-09-05T12:05:01.505Z,43.50
2018-09-05T12:07:29.532Z,43.38
2018-09-05T12:09:57.642Z,43.06
2018-09-05T12:12:25.744Z,42.54
2018-09-05T12:14:53.955Z,42.03
2018-09-05T12:17:22.064Z,42.28
2018-09-05T12:19:50.161Z,41.38
2018-09-05T12:22:18.246Z,41.48
2018-09-05T12:24:46.346Z,43.02
2018-09-05T12:27:15.014Z,41.89
2018-09-05T12:29:43.093Z,41.81
2018-09-05T12:32:11.201Z,41.65
2018-09-05T12:34:39.289Z,41.13
2018-09-05T12:37:07.423Z,40.46
2018-09-05T12:39:35.574Z,40.52
2018-09-05T12:42:03.640Z,40.50
2018-09-05T12:44:31.729Z,39.72
2018-09-05T12:46:59.844Z,38.52
2018-09-05T12:49:27.931Z,37.87
2018-09-05T12:51:56.010Z,38.18
2018-09-05T12:54:24.151Z,39.33
2018-09-05T12:56:52.223Z,38.32
2018-09-05T12:59:20.331Z,38.92
2018-09-05T13:01:48.399Z,38.17
2018-09-05T13:04:16.517Z,39.17
2018-09-05T13:06:44.600Z,37.52
2018-09-05T13:09:13.867Z,39.78
2018-09-05T13:11:42.131Z,38.81
2018-09-05T13:14:10.233Z,38.56
2018-09-05T13:16:38.484Z,37.91
2018-09-05T13:19:06.612Z,38.83
2018-09-05T13:21:34.739Z,38.74
2018-09-05T13:24:02.851Z,38.40
2018-09-05T13:26:30.995Z,38.92
2018-09-05T13:28:59.179Z,39.38
2018-09-05T13:31:27.341Z,37.91
2018-09-05T13:33:55.451Z,39.12
2018-09-05T13:36:23.530Z,38.23
2018-09-05T13:38:51.598Z,38.91
2018-09-05T13:41:19.739Z,36.80
2018-09-05T13:43:47.834Z,37.44
2018-09-05T13:46:15.992Z,38.30
2018-09-05T13:48:44.076Z,37.55
2018-09-05T13:51:12.160Z,38.04
2018-09-05T13:53:40.231Z,36.42
2018-09-05T13:56:08.339Z,36.20
2018-09-05T13:58:36.412Z,37.45
2018-09-05T14:01:04.504Z,37.19
2018-09-05T14:03:32.575Z,36.09
2018-09-05T14:06:00.673Z,35.77
2018-09-05T14:08:28.731Z,36.47
2018-09-05T14:10:56.803Z,37.10
2018-09-05T14:13:24.917Z,37.00
2018-09-05T14:15:52.956Z,35.62
2018-09-05T14:18:21.084Z,36.44
2018-09-05T14:20:49.201Z,35.50
2018-09-05T14:23:17.329Z,35.38
2018-09-05T14:25:45.471Z,35.80
2018-09-05T14:28:13.587Z,34.95
2018-09-05T14:30:41.724Z,35.05
2018-09-05T14:33:09.899Z,35.46
2018-09-05T14:35:38.004Z,36.17
2018-09-05T14:38:06.105Z,36.61
2018-09-05T14:40:34.225Z,35.80
2018-09-05T14:43:02.351Z,36.88
2018-09-05T14:45:30.525Z,35.44
2018-09-05T14:47:58.648Z,35.63
2018-09-05T14:50:26.791Z,35.89
2018-09-05T14:52:54.868Z,36.21
2018-09-05T14:55:22.952Z,35.46
2018-09-05T14:57:51.110Z,34.79
2018-09-05T15:00:19.232Z,34.97
2018-09-05T15:02:47.316Z,34.72
2018-09-05T15:05:15.426Z,34.75
2018-09-05T15:07:47.012Z,34.56
2018-09-05T15:10:15.108Z,34.83
2018-09-05T15:12:43.497Z,35.24
2018-09-05T15:15:11.771Z,33.95
2018-09-05T15:17:39.986Z,34.03
2018-09-05T15:20:08.765Z,34.18
2018-09-05T15:22:36.856Z,34.42
2018-09-05T15:25:05.150Z,33.94
2018-09-05T15:27:33.218Z,34.12
2018-09-05T15:30:01.323Z,35.47
2018-09-05T15:32:29.452Z,34.26
2018-09-05T15:34:57.604Z,33.90
2018-09-05T15:37:25.743Z,33.56
2018-09-05T15:39:53.902Z,33.53
2018-09-05T15:42:22.011Z,33.61
2018-09-05T15:44:50.195Z,34.35
2018-09-05T15:47:18.302Z,34.45
2018-09-05T15:49:46.477Z,35.17
2018-09-05T15:52:14.594Z,34.20
2018-09-05T15:54:42.762Z,33.97
2018-09-05T15:57:10.887Z,34.45
2018-09-05T15:59:38.987Z,34.53
2018-09-05T16:02:07.240Z,34.47
2018-09-05T16:04:35.392Z,33.99
2018-09-05T16:07:03.524Z,33.82
2018-09-05T16:09:31.664Z,33.97
2018-09-05T16:11:59.812Z,34.74
2018-09-05T16:14:27.953Z,35.72
2018-09-05T16:16:56.036Z,34.03
